createdAt,value
2023-02-25T00:02:24.396Z,0.40
2023-02-25T00:04:54.006Z,0.40
2023-02-25T00:07:29.046Z,0.40
2023-02-25T00:09:58.759Z,0.40
2023-02-25T00:12:29.597Z,0.40
2023-02-25T00:15:00.426Z,0.40
2023-02-25T00:17:30.190Z,0.40
2023-02-25T00:20:00.735Z,0.43
2023-02-25T00:22:30.301Z,0.40
2023-02-25T00:24:59.782Z,0.40
2023-02-25T00:27:30.223Z,0.43
2023-02-25T00:30:01.147Z,0.40
2023-02-25T00:32:32.923Z,0.40
2023-02-25T00:35:02.401Z,0.43
2023-02-25T00:37:32.591Z,0.50
2023-02-25T00:40:02.321Z,0.40
2023-02-25T00:42:31.775Z,0.40
2023-02-25T00:45:02.642Z,0.40
2023-02-25T00:47:32.626Z,0.40
2023-02-25T00:50:02.187Z,0.40
2023-02-25T00:52:32.148Z,0.40
2023-02-25T00:55:01.597Z,0.40
2023-02-25T00:57:34.115Z,0.40
2023-02-25T01:00:11.086Z,0.40
2023-02-25T01:02:40.560Z,0.40
2023-02-25T01:05:10.338Z,0.30
2023-02-25T01:07:40.020Z,0.40
2023-02-25T01:10:10.657Z,0.40
2023-02-25T01:12:40.151Z,0.40
2023-02-25T01:15:11.663Z,0.40
2023-02-25T01:17:41.209Z,0.40
2023-02-25T01:20:13.095Z,0.40
2023-02-25T01:22:42.678Z,0.43
2023-02-25T01:25:16.332Z,0.40
2023-02-25T01:27:45.819Z,0.40
2023-02-25T01:30:18.108Z,0.47
2023-02-25T01:32:47.950Z,0.40
2023-02-25T01:35:17.611Z,0.47
2023-02-25T01:37:47.672Z,0.40
2023-02-25T01:40:17.889Z,0.40
2023-02-25T01:42:48.092Z,0.40
2023-02-25T01:45:27.171Z,0.43
2023-02-25T01:47:58.896Z,0.43
2023-02-25T01:50:33.547Z,0.40
2023-02-25T01:53:04.884Z,0.40
2023-02-25T01:55:36.123Z,0.40
2023-02-25T01:58:05.618Z,0.40
2023-02-25T02:00:38.013Z,0.40
2023-02-25T02:03:16.190Z,0.40
2023-02-25T02:05:51.019Z,0.40
2023-02-25T02:08:20.542Z,0.40
2023-02-25T02:10:50.346Z,0.40
2023-02-25T02:13:20.096Z,0.40
2023-02-25T02:15:55.390Z,0.30
2023-02-25T02:18:25.097Z,0.40
2023-02-25T02:21:00.097Z,0.33
2023-02-25T02:23:41.837Z,0.30
2023-02-25T02:26:31.962Z,0.40
2023-02-25T02:29:22.810Z,0.40
2023-02-25T02:32:05.832Z,0.40
2023-02-25T02:34:42.228Z,0.40
2023-02-25T02:37:20.861Z,0.40
2023-02-25T02:39:53.292Z,0.40
2023-02-25T02:42:28.417Z,0.40
2023-02-25T02:45:01.152Z,0.40
2023-02-25T02:47:34.658Z,0.40
2023-02-25T02:50:07.905Z,0.40
2023-02-25T02:52:40.101Z,0.40
2023-02-25T02:55:12.618Z,0.40
2023-02-25T02:57:43.225Z,0.40
2023-02-25T03:00:17.477Z,0.40
2023-02-25T03:02:53.318Z,0.40
2023-02-25T03:05:26.522Z,0.40
2023-02-25T03:07:59.745Z,0.40
2023-02-25T03:10:29.366Z,0.40
2023-02-25T03:12:58.938Z,0.40
2023-02-25T03:15:30.669Z,0.40
2023-02-25T03:18:05.455Z,0.40
2023-02-25T03:20:38.158Z,0.40
2023-02-25T03:23:09.668Z,0.40
2023-02-25T03:25:47.611Z,0.30
2023-02-25T03:28:24.314Z,0.40
2023-02-25T03:30:58.620Z,0.40
2023-02-25T03:33:33.517Z,0.40
2023-02-25T03:36:04.682Z,0.40
2023-02-25T03:38:36.835Z,0.40
2023-02-25T03:41:08.360Z,0.40
2023-02-25T03:43:39.536Z,0.40
2023-02-25T03:46:09.356Z,0.40
2023-02-25T03:48:40.927Z,0.47
2023-02-25T03:51:15.284Z,0.40
2023-02-25T03:53:45.908Z,0.30
2023-02-25T03:56:20.767Z,0.40
2023-02-25T03:58:50.357Z,0.40
2023-02-25T04:01:21.563Z,0.40
2023-02-25T04:03:52.391Z,0.40
2023-02-25T04:06:24.299Z,0.40
2023-02-25T04:08:54.528Z,0.30
2023-02-25T04:11:24.203Z,0.40
2023-02-25T04:13:54.700Z,0.40
2023-02-25T04:16:24.750Z,0.40
2023-02-25T04:18:55.846Z,0.40
2023-02-25T04:21:29.887Z,0.40
2023-02-25T04:23:59.827Z,0.40
2023-02-25T04:26:29.305Z,0.40
2023-02-25T04:28:58.854Z,0.40
2023-02-25T04:31:28.554Z,0.43
2023-02-25T04:33:59.470Z,0.40
2023-02-25T04:36:30.103Z,0.40
2023-02-25T04:39:00.280Z,0.40
2023-02-25T04:41:30.939Z,0.30
2023-02-25T04:44:00.520Z,0.40
2023-02-25T04:46:30.001Z,0.33
2023-02-25T04:49:00.926Z,0.40
2023-02-25T04:51:30.697Z,0.40
2023-02-25T04:54:00.261Z,0.50
2023-02-25T04:56:30.070Z,0.50
2023-02-25T04:58:59.837Z,0.40
2023-02-25T05:01:31.328Z,0.40
2023-02-25T05:04:02.215Z,0.37
2023-02-25T05:06:31.910Z,0.40
2023-02-25T05:09:02.097Z,0.40
2023-02-25T05:11:31.578Z,0.43
2023-02-25T05:14:01.125Z,0.40
2023-02-25T05:16:30.732Z,0.40
2023-02-25T05:19:00.223Z,0.40
2023-02-25T05:21:31.095Z,0.40
2023-02-25T05:24:00.600Z,0.40
2023-02-25T05:26:30.200Z,0.40
2023-02-25T05:28:59.994Z,0.40
2023-02-25T05:31:29.817Z,0.40
2023-02-25T05:33:59.485Z,0.40
2023-02-25T05:36:29.510Z,0.40
2023-02-25T05:39:02.711Z,0.40
2023-02-25T05:41:32.546Z,0.40
2023-02-25T05:44:02.056Z,0.40
2023-02-25T05:46:31.549Z,0.50
2023-02-25T05:49:01.038Z,0.43
2023-02-25T05:51:30.541Z,0.40
2023-02-25T05:54:01.415Z,0.40
2023-02-25T05:56:32.232Z,0.50
2023-02-25T05:59:02.011Z,0.40
2023-02-25T06:01:31.850Z,0.40
2023-02-25T06:04:01.412Z,0.40
2023-02-25T06:06:32.108Z,0.40
2023-02-25T06:09:05.812Z,0.40
2023-02-25T06:11:35.308Z,0.40
2023-02-25T06:14:04.828Z,0.40
2023-02-25T06:16:34.308Z,0.40
2023-02-25T06:19:03.856Z,0.43
2023-02-25T06:21:33.904Z,0.40
2023-02-25T06:24:05.847Z,0.40
2023-02-25T06:26:35.491Z,0.40
2023-02-25T06:29:05.035Z,0.40
2023-02-25T06:31:35.061Z,0.47
2023-02-25T06:34:04.535Z,0.50
2023-02-25T06:36:34.260Z,0.40
2023-02-25T06:39:05.503Z,0.50
2023-02-25T06:41:35.050Z,0.50
2023-02-25T06:44:06.397Z,0.47
2023-02-25T06:46:35.932Z,0.40
2023-02-25T06:49:05.426Z,0.50
2023-02-25T06:51:34.903Z,0.40
2023-02-25T06:54:06.240Z,0.40
2023-02-25T06:56:35.710Z,0.40
2023-02-25T06:59:05.249Z,0.43
2023-02-25T07:01:34.875Z,0.40
2023-02-25T07:04:04.433Z,0.40
2023-02-25T07:06:33.964Z,0.40
2023-02-25T07:09:03.437Z,0.43
2023-02-25T07:11:35.852Z,0.40
2023-02-25T07:14:06.249Z,0.40
2023-02-25T07:16:35.905Z,0.40
2023-02-25T07:19:05.562Z,0.50
2023-02-25T07:21:35.084Z,0.50
2023-02-25T07:24:04.892Z,0.40
2023-02-25T07:26:35.817Z,0.40
2023-02-25T07:29:06.019Z,0.40
2023-02-25T07:31:35.654Z,0.47
2023-02-25T07:34:05.233Z,0.40
2023-02-25T07:36:35.927Z,0.40
2023-02-25T07:39:05.928Z,0.50
2023-02-25T07:41:37.305Z,0.40
2023-02-25T07:44:07.349Z,0.40
2023-02-25T07:46:36.904Z,0.50
2023-02-25T07:49:06.384Z,0.40
2023-02-25T07:51:35.852Z,0.40
2023-02-25T07:54:05.493Z,0.40
2023-02-25T07:56:34.997Z,0.40
2023-02-25T07:59:05.823Z,0.40
2023-02-25T08:01:35.757Z,0.40
2023-02-25T08:04:06.882Z,0.40
2023-02-25T08:06:37.626Z,0.40
2023-02-25T08:09:07.964Z,0.43
2023-02-25T08:11:37.501Z,0.40
2023-02-25T08:14:08.655Z,0.40
2023-02-25T08:16:38.656Z,0.50
2023-02-25T08:19:08.560Z,0.40
2023-02-25T08:21:40.427Z,0.40
2023-02-25T08:24:10.250Z,0.40
2023-02-25T08:26:41.065Z,0.40
2023-02-25T08:29:11.950Z,0.40
2023-02-25T08:31:41.701Z,0.40
2023-02-25T08:34:11.941Z,0.40
2023-02-25T08:36:41.462Z,0.40
2023-02-25T08:39:11.810Z,0.40
2023-02-25T08:41:41.516Z,0.40
2023-02-25T08:44:12.526Z,0.40
2023-02-25T08:46:43.174Z,0.40
2023-02-25T08:49:13.511Z,0.50
2023-02-25T08:51:43.015Z,0.50
2023-02-25T08:54:13.739Z,0.40
2023-02-25T08:56:44.554Z,0.40
2023-02-25T08:59:17.820Z,0.40
2023-02-25T09:01:49.127Z,0.40
2023-02-25T09:04:19.416Z,0.37
2023-02-25T09:06:48.932Z,0.40
2023-02-25T09:09:19.182Z,0.40
2023-02-25T09:11:49.263Z,0.40
2023-02-25T09:14:20.283Z,0.40
2023-02-25T09:16:50.083Z,0.40
2023-02-25T09:19:19.654Z,0.40
2023-02-25T09:21:49.796Z,0.40
2023-02-25T09:24:19.774Z,0.40
2023-02-25T09:26:49.586Z,0.40
2023-02-25T09:29:20.404Z,0.30
2023-02-25T09:31:50.189Z,0.40
2023-02-25T09:34:20.367Z,0.40
2023-02-25T09:36:50.019Z,0.40
2023-02-25T09:39:19.593Z,0.40
2023-02-25T09:41:53.369Z,0.40
2023-02-25T09:44:27.957Z,0.40
2023-02-25T09:46:58.980Z,0.40
2023-02-25T09:49:31.565Z,0.40
2023-02-25T09:52:03.135Z,0.50
2023-02-25T09:54:36.239Z,0.40
2023-02-25T09:57:06.421Z,0.47
2023-02-25T09:59:38.893Z,0.40
2023-02-25T10:02:15.744Z,0.40
2023-02-25T10:04:48.649Z,0.40
2023-02-25T10:07:22.842Z,0.40
2023-02-25T10:09:55.483Z,0.40
2023-02-25T10:12:30.352Z,0.40
2023-02-25T10:15:14.719Z,0.40
2023-02-25T10:17:48.012Z,0.30
2023-02-25T10:20:38.871Z,0.40
2023-02-25T10:23:10.998Z,0.40
2023-02-25T10:25:44.111Z,0.40
2023-02-25T10:28:16.019Z,0.40
2023-02-25T10:30:50.158Z,0.30
2023-02-25T10:33:24.550Z,0.37
2023-02-25T10:35:57.705Z,0.40
2023-02-25T10:38:30.857Z,0.33
2023-02-25T10:41:01.141Z,0.40
2023-02-25T10:43:32.804Z,0.40
2023-02-25T10:46:05.082Z,0.40
2023-02-25T10:48:37.164Z,0.40
2023-02-25T10:51:10.434Z,0.30
2023-02-25T10:53:41.744Z,0.40
2023-02-25T10:56:13.124Z,0.40
2023-02-25T10:58:46.903Z,0.30
2023-02-25T11:01:18.116Z,0.30
2023-02-25T11:03:55.080Z,0.30
2023-02-25T11:06:27.156Z,0.40
2023-02-25T11:08:58.955Z,0.30
2023-02-25T11:11:32.290Z,0.30
2023-02-25T11:14:04.935Z,0.30
2023-02-25T11:16:36.645Z,0.30
2023-02-25T11:19:16.926Z,0.40
2023-02-25T11:21:49.066Z,0.40
2023-02-25T11:24:22.376Z,0.30
2023-02-25T11:26:54.922Z,0.50
2023-02-25T11:29:27.294Z,0.30
2023-02-25T11:32:04.789Z,0.33
2023-02-25T11:34:39.718Z,0.30
2023-02-25T11:37:27.057Z,0.30
2023-02-25T11:39:59.235Z,0.30
2023-02-25T11:42:32.706Z,0.40
2023-02-25T11:45:04.876Z,0.30
2023-02-25T11:47:37.700Z,0.30
2023-02-25T11:50:14.800Z,0.30
2023-02-25T11:52:49.475Z,0.30
2023-02-25T11:55:25.685Z,0.27
2023-02-25T11:58:03.801Z,0.30
2023-02-25T12:00:37.153Z,0.20
2023-02-25T12:03:20.501Z,0.30
2023-02-25T12:05:56.703Z,0.30
2023-02-25T12:08:47.172Z,0.30
2023-02-25T12:11:30.354Z,0.30
2023-02-25T12:14:14.022Z,0.30
2023-02-25T12:17:05.730Z,0.20
2023-02-25T12:19:57.880Z,0.30
2023-02-25T12:22:50.000Z,0.20
2023-02-25T12:25:25.801Z,0.30
2023-02-25T12:28:09.677Z,0.30
2023-02-25T12:30:54.568Z,0.30
2023-02-25T12:33:40.375Z,0.20
2023-02-25T12:36:16.640Z,0.30
2023-02-25T12:39:11.124Z,0.30
2023-02-25T12:41:49.198Z,0.30
2023-02-25T12:44:38.188Z,0.30
2023-02-25T12:47:18.937Z,0.20
2023-02-25T12:50:07.266Z,0.20
2023-02-25T12:52:49.406Z,0.20
2023-02-25T12:55:39.365Z,0.20
2023-02-25T12:58:30.986Z,0.20
2023-02-25T13:01:26.106Z,0.30
2023-02-25T13:04:05.172Z,0.30
2023-02-25T13:06:45.746Z,0.30
2023-02-25T13:09:27.484Z,0.30
2023-02-25T13:12:11.783Z,0.37
2023-02-25T13:15:03.250Z,0.30
2023-02-25T13:17:42.072Z,0.30
2023-02-25T13:20:38.352Z,0.30
2023-02-25T13:23:14.212Z,0.20
2023-02-25T13:25:52.172Z,0.27
2023-02-25T13:28:27.342Z,0.20
2023-02-25T13:31:00.210Z,0.23
2023-02-25T13:33:48.801Z,0.30
2023-02-25T13:36:37.795Z,0.30
2023-02-25T13:39:16.378Z,0.30
2023-02-25T13:41:55.016Z,0.30
2023-02-25T13:44:32.986Z,0.30
2023-02-25T13:47:12.352Z,0.30
2023-02-25T13:50:03.033Z,0.40
2023-02-25T13:52:36.540Z,0.33
2023-02-25T13:55:15.154Z,0.30
2023-02-25T13:57:53.847Z,0.40
2023-02-25T14:00:47.655Z,0.40
2023-02-25T14:03:24.716Z,0.40
2023-02-25T14:06:15.061Z,0.40
2023-02-25T14:08:54.615Z,0.40
2023-02-25T14:11:33.693Z,0.40
2023-02-25T14:14:10.868Z,0.40
2023-02-25T14:16:47.895Z,0.40
2023-02-25T14:19:24.685Z,0.40
2023-02-25T14:22:05.535Z,0.40
2023-02-25T14:24:37.730Z,0.30
2023-02-25T14:27:18.016Z,0.40
2023-02-25T14:29:56.113Z,0.30
2023-02-25T14:32:36.155Z,0.40
2023-02-25T14:35:23.694Z,0.40
2023-02-25T14:38:00.299Z,0.40
2023-02-25T14:40:31.816Z,0.40
2023-02-25T14:43:19.943Z,0.40
2023-02-25T14:45:53.638Z,0.40
2023-02-25T14:48:27.492Z,0.40
2023-02-25T14:51:01.597Z,0.40
2023-02-25T14:53:47.174Z,0.40
2023-02-25T14:56:27.342Z,0.40
2023-02-25T14:59:09.057Z,0.40
2023-02-25T15:01:41.963Z,0.40
2023-02-25T15:04:25.168Z,0.30
2023-02-25T15:06:59.669Z,0.40
2023-02-25T15:09:46.659Z,0.40
2023-02-25T15:12:23.071Z,0.50
2023-02-25T15:15:14.350Z,0.50
2023-02-25T15:17:57.872Z,0.40
2023-02-25T15:20:30.638Z,0.40
2023-02-25T15:23:07.054Z,0.40
2023-02-25T15:25:42.432Z,0.40
2023-02-25T15:28:30.787Z,0.40
2023-02-25T15:31:19.162Z,0.40
2023-02-25T15:33:49.322Z,0.40
2023-02-25T15:36:24.253Z,0.40
2023-02-25T15:38:55.458Z,0.50
2023-02-25T15:41:43.416Z,0.40
2023-02-25T15:44:34.265Z,0.40
2023-02-25T15:47:27.875Z,0.40
2023-02-25T15:50:00.979Z,0.40
2023-02-25T15:52:49.035Z,0.40
2023-02-25T15:55:21.917Z,0.40
2023-02-25T15:57:52.928Z,0.43
2023-02-25T16:00:47.304Z,0.50
2023-02-25T16:03:49.879Z,0.50
2023-02-25T16:06:20.494Z,0.40
2023-02-25T16:08:55.311Z,0.40
2023-02-25T16:11:26.861Z,0.40
2023-02-25T16:13:58.106Z,0.40
2023-02-25T16:16:28.636Z,0.40
2023-02-25T16:18:58.773Z,0.40
2023-02-25T16:21:29.504Z,0.50
2023-02-25T16:24:00.604Z,0.33
2023-02-25T16:26:40.615Z,0.40
2023-02-25T16:29:15.309Z,0.40
2023-02-25T16:31:47.651Z,0.50
2023-02-25T16:34:22.860Z,0.40
2023-02-25T16:36:56.310Z,0.40
2023-02-25T16:39:27.721Z,0.40
2023-02-25T16:41:57.354Z,0.50
2023-02-25T16:44:33.310Z,0.50
2023-02-25T16:47:03.110Z,0.40
2023-02-25T16:49:33.652Z,0.50
2023-02-25T16:52:03.366Z,0.50
2023-02-25T16:54:36.205Z,0.50
2023-02-25T16:57:07.211Z,0.40
2023-02-25T16:59:38.872Z,0.40
2023-02-25T17:02:23.263Z,0.40
2023-02-25T17:04:54.074Z,0.40
2023-02-25T17:07:25.555Z,0.40
2023-02-25T17:09:56.106Z,0.50
2023-02-25T17:12:34.464Z,0.40
2023-02-25T17:15:06.832Z,0.40
2023-02-25T17:17:38.797Z,0.40
2023-02-25T17:20:11.897Z,0.40
2023-02-25T17:22:41.809Z,0.40
2023-02-25T17:25:15.951Z,0.50
2023-02-25T17:27:47.570Z,0.50
2023-02-25T17:30:38.644Z,0.40
2023-02-25T17:33:12.286Z,0.50
2023-02-25T17:35:42.812Z,0.47
2023-02-25T17:38:14.892Z,0.50
2023-02-25T17:40:45.259Z,0.50
2023-02-25T17:43:20.062Z,0.40
2023-02-25T17:45:59.111Z,0.50
2023-02-25T17:48:31.353Z,0.40
2023-02-25T17:51:01.758Z,0.40
2023-02-25T17:53:42.627Z,0.40
2023-02-25T17:56:13.447Z,0.40
2023-02-25T17:58:42.975Z,0.40
2023-02-25T18:01:22.825Z,0.40
2023-02-25T18:03:53.108Z,0.50
2023-02-25T18:06:33.053Z,0.40
2023-02-25T18:09:02.928Z,0.40
2023-02-25T18:11:33.913Z,0.40
2023-02-25T18:14:06.834Z,0.40
2023-02-25T18:16:40.658Z,0.40
2023-02-25T18:19:45.843Z,0.50
2023-02-25T18:22:26.854Z,0.40
2023-02-25T18:24:57.939Z,0.40
2023-02-25T18:27:30.307Z,0.40
2023-02-25T18:30:15.958Z,0.50
2023-02-25T18:32:46.891Z,0.47
2023-02-25T18:35:16.497Z,0.40
2023-02-25T18:37:46.729Z,0.40
2023-02-25T18:40:17.517Z,0.50
2023-02-25T18:42:47.164Z,0.50
2023-02-25T18:45:17.190Z,0.40
2023-02-25T18:47:48.516Z,0.50
2023-02-25T18:50:18.416Z,0.40
2023-02-25T18:52:48.576Z,0.40
2023-02-25T18:55:20.013Z,0.40
2023-02-25T18:57:49.916Z,0.50
2023-02-25T19:00:21.158Z,0.50
2023-02-25T19:02:52.971Z,0.40
2023-02-25T19:05:23.418Z,0.50
2023-02-25T19:07:53.218Z,0.47
2023-02-25T19:10:23.852Z,0.47
2023-02-25T19:13:02.839Z,0.50
2023-02-25T19:15:32.490Z,0.40
2023-02-25T19:18:03.385Z,0.50
2023-02-25T19:20:32.944Z,0.50
2023-02-25T19:23:02.557Z,0.50
2023-02-25T19:25:33.863Z,0.50
2023-02-25T19:28:03.927Z,0.50
2023-02-25T19:30:35.205Z,0.50
2023-02-25T19:33:06.429Z,0.50
2023-02-25T19:35:36.681Z,0.50
2023-02-25T19:38:07.075Z,0.50
2023-02-25T19:40:37.710Z,0.50
2023-02-25T19:43:08.217Z,0.50
2023-02-25T19:45:38.057Z,0.50
2023-02-25T19:48:09.301Z,0.50
2023-02-25T19:50:38.821Z,0.40
2023-02-25T19:53:08.368Z,0.47
2023-02-25T19:55:39.044Z,0.50
2023-02-25T19:58:09.023Z,0.40
2023-02-25T20:00:39.940Z,0.40
2023-02-25T20:03:10.820Z,0.50
2023-02-25T20:05:40.289Z,0.50
2023-02-25T20:08:10.188Z,0.50
2023-02-25T20:10:43.774Z,0.43
2023-02-25T20:13:13.366Z,0.50
2023-02-25T20:15:42.877Z,0.50
2023-02-25T20:18:13.802Z,0.50
2023-02-25T20:20:44.069Z,0.40
2023-02-25T20:23:13.585Z,0.50
2023-02-25T20:25:43.124Z,0.50
2023-02-25T20:28:12.671Z,0.40
2023-02-25T20:30:42.216Z,0.50
2023-02-25T20:33:11.701Z,0.40
2023-02-25T20:35:42.994Z,0.40
2023-02-25T20:38:17.554Z,0.50
2023-02-25T20:40:47.144Z,0.50
2023-02-25T20:43:17.191Z,0.50
2023-02-25T20:45:47.441Z,0.50
2023-02-25T20:48:22.837Z,0.50
2023-02-25T20:50:54.342Z,0.43
2023-02-25T20:53:24.036Z,0.40
2023-02-25T20:55:56.034Z,0.40
2023-02-25T20:58:25.567Z,0.50
2023-02-25T21:00:55.142Z,0.50
2023-02-25T21:03:24.710Z,0.50
2023-02-25T21:05:55.633Z,0.40
2023-02-25T21:08:25.144Z,0.50
2023-02-25T21:10:55.140Z,0.40
2023-02-25T21:13:24.840Z,0.47
2023-02-25T21:15:59.881Z,0.43
2023-02-25T21:18:29.625Z,0.50
2023-02-25T21:21:01.127Z,0.50
2023-02-25T21:23:31.143Z,0.50
2023-02-25T21:26:00.703Z,0.40
2023-02-25T21:28:30.827Z,0.50
2023-02-25T21:31:02.787Z,0.50
2023-02-25T21:33:33.295Z,0.50
2023-02-25T21:36:04.370Z,0.40
2023-02-25T21:38:33.893Z,0.50
2023-02-25T21:41:06.843Z,0.50
2023-02-25T21:43:36.666Z,0.40
2023-02-25T21:46:06.868Z,0.40
2023-02-25T21:48:36.430Z,0.50
2023-02-25T21:51:07.637Z,0.40
2023-02-25T21:53:37.146Z,0.50
2023-02-25T21:56:10.706Z,0.50
2023-02-25T21:58:40.276Z,0.50
2023-02-25T22:01:13.885Z,0.50
2023-02-25T22:03:43.531Z,0.43
2023-02-25T22:06:15.315Z,0.40
2023-02-25T22:08:45.753Z,0.50
2023-02-25T22:11:15.945Z,0.40
2023-02-25T22:13:45.672Z,0.40
2023-02-25T22:16:15.838Z,0.40
2023-02-25T22:18:45.513Z,0.50
2023-02-25T22:21:17.060Z,0.40
2023-02-25T22:23:48.352Z,0.50
2023-02-25T22:26:19.162Z,0.50
2023-02-25T22:28:48.978Z,0.50
2023-02-25T22:31:19.180Z,0.50
2023-02-25T22:33:48.754Z,0.50
2023-02-25T22:36:20.174Z,0.50
2023-02-25T22:38:50.376Z,0.40
2023-02-25T22:41:20.901Z,0.50
2023-02-25T22:43:50.765Z,0.40
2023-02-25T22:46:23.395Z,0.40
2023-02-25T22:48:54.277Z,0.40
2023-02-25T22:51:26.038Z,0.40
2023-02-25T22:53:56.148Z,0.40
2023-02-25T22:56:26.451Z,0.40
2023-02-25T22:58:56.291Z,0.40
2023-02-25T23:01:27.057Z,0.40
2023-02-25T23:03:57.602Z,0.50
2023-02-25T23:06:45.858Z,0.43
2023-02-25T23:09:16.182Z,0.40
2023-02-25T23:11:45.963Z,0.40
2023-02-25T23:14:15.733Z,0.40
2023-02-25T23:16:46.042Z,0.50
2023-02-25T23:19:16.644Z,0.50
2023-02-25T23:21:47.712Z,0.50
2023-02-25T23:24:19.454Z,0.50
2023-02-25T23:26:50.760Z,0.40
2023-02-25T23:29:20.478Z,0.50
2023-02-25T23:31:50.286Z,0.50
2023-02-25T23:34:22.861Z,0.43
2023-02-25T23:36:55.952Z,0.50
2023-02-25T23:39:25.638Z,0.40
2023-02-25T23:41:55.217Z,0.40
2023-02-25T23:44:24.943Z,0.50
2023-02-25T23:46:54.524Z,0.40
2023-02-25T23:49:24.104Z,0.50
2023-02-25T23:51:54.999Z,0.50
2023-02-25T23:54:24.484Z,0.50
2023-02-25T23:56:54.056Z,0.50
2023-02-25T23:59:24.002Z,0.50
